sensor_id;sensor_type;location;lat;lon;timestamp;P1;durP1;ratioP1;P2;durP2;ratioP2
42066;SDS011;27734;47.028;28.820;2023-06-22T00:01:41;22.40;;;14.33;;
42066;SDS011;27734;47.028;28.820;2023-06-22T00:04:12;22.57;;;14.17;;
42066;SDS011;27734;47.028;28.820;2023-06-22T00:06:43;22.35;;;14.15;;
42066;SDS011;27734;47.028;28.820;2023-06-22T00:09:14;23.63;;;14.20;;
42066;SDS011;27734;47.028;28.820;2023-06-22T00:11:46;24.60;;;14.50;;
42066;SDS011;27734;47.028;28.820;2023-06-22T00:14:17;21.83;;;13.57;;
42066;SDS011;27734;47.028;28.820;2023-06-22T00:16:48;22.65;;;14.10;;
42066;SDS011;27734;47.028;28.820;2023-06-22T00:19:23;21.87;;;14.50;;
42066;SDS011;27734;47.028;28.820;2023-06-22T00:21:54;22.83;;;14.17;;
42066;SDS011;27734;47.028;28.820;2023-06-22T00:24:28;23.63;;;14.67;;
42066;SDS011;27734;47.028;28.820;2023-06-22T00:27:01;22.57;;;14.27;;
42066;SDS011;27734;47.028;28.820;2023-06-22T00:29:40;22.30;;;14.23;;
42066;SDS011;27734;47.028;28.820;2023-06-22T00:32:11;22.80;;;14.23;;
42066;SDS011;27734;47.028;28.820;2023-06-22T00:34:43;23.47;;;13.60;;
42066;SDS011;27734;47.028;28.820;2023-06-22T00:37:14;22.75;;;13.65;;
42066;SDS011;27734;47.028;28.820;2023-06-22T00:39:45;23.20;;;13.87;;
42066;SDS011;27734;47.028;28.820;2023-06-22T00:42:17;22.00;;;13.63;;
42066;SDS011;27734;47.028;28.820;2023-06-22T00:44:48;23.93;;;14.43;;
42066;SDS011;27734;47.028;28.820;2023-06-22T00:47:20;21.83;;;13.53;;
42066;SDS011;27734;47.028;28.820;2023-06-22T00:49:51;22.10;;;14.17;;
42066;SDS011;27734;47.028;28.820;2023-06-22T00:52:23;21.93;;;13.70;;
42066;SDS011;27734;47.028;28.820;2023-06-22T00:54:57;21.90;;;14.10;;
42066;SDS011;27734;47.028;28.820;2023-06-22T00:57:31;21.95;;;14.45;;
42066;SDS011;27734;47.028;28.820;2023-06-22T01:00:06;23.23;;;14.03;;
42066;SDS011;27734;47.028;28.820;2023-06-22T01:02:45;24.30;;;14.30;;
42066;SDS011;27734;47.028;28.820;2023-06-22T01:05:20;23.37;;;14.07;;
42066;SDS011;27734;47.028;28.820;2023-06-22T01:10:47;23.42;;;14.30;;
42066;SDS011;27734;47.028;28.820;2023-06-22T01:13:26;23.75;;;14.90;;
42066;SDS011;27734;47.028;28.820;2023-06-22T01:16:02;24.23;;;14.70;;
42066;SDS011;27734;47.028;28.820;2023-06-22T01:18:37;24.77;;;14.77;;
42066;SDS011;27734;47.028;28.820;2023-06-22T01:21:14;23.50;;;15.43;;
42066;SDS011;27734;47.028;28.820;2023-06-22T01:23:54;25.73;;;16.03;;
42066;SDS011;27734;47.028;28.820;2023-06-22T01:26:35;24.30;;;15.47;;
42066;SDS011;27734;47.028;28.820;2023-06-22T01:29:08;24.57;;;15.33;;
42066;SDS011;27734;47.028;28.820;2023-06-22T01:31:43;25.40;;;15.10;;
42066;SDS011;27734;47.028;28.820;2023-06-22T01:34:17;25.53;;;16.67;;
42066;SDS011;27734;47.028;28.820;2023-06-22T01:36:49;24.17;;;15.97;;
42066;SDS011;27734;47.028;28.820;2023-06-22T01:39:22;26.00;;;16.27;;
42066;SDS011;27734;47.028;28.820;2023-06-22T01:41:55;25.37;;;15.30;;
42066;SDS011;27734;47.028;28.820;2023-06-22T01:44:28;25.97;;;16.17;;
42066;SDS011;27734;47.028;28.820;2023-06-22T01:47:01;24.30;;;16.00;;
42066;SDS011;27734;47.028;28.820;2023-06-22T01:49:33;25.20;;;16.20;;
42066;SDS011;27734;47.028;28.820;2023-06-22T01:52:07;26.27;;;16.37;;
42066;SDS011;27734;47.028;28.820;2023-06-22T01:54:39;26.07;;;17.40;;
42066;SDS011;27734;47.028;28.820;2023-06-22T01:57:10;25.47;;;15.50;;
42066;SDS011;27734;47.028;28.820;2023-06-22T01:59:44;27.13;;;16.90;;
42066;SDS011;27734;47.028;28.820;2023-06-22T02:02:24;23.97;;;15.23;;
42066;SDS011;27734;47.028;28.820;2023-06-22T02:05:01;25.60;;;16.83;;
42066;SDS011;27734;47.028;28.820;2023-06-22T02:07:41;24.87;;;15.83;;
42066;SDS011;27734;47.028;28.820;2023-06-22T02:10:16;26.53;;;16.93;;
42066;SDS011;27734;47.028;28.820;2023-06-22T02:12:49;24.20;;;16.00;;
42066;SDS011;27734;47.028;28.820;2023-06-22T02:15:21;25.70;;;16.50;;
42066;SDS011;27734;47.028;28.820;2023-06-22T02:17:55;28.20;;;16.70;;
42066;SDS011;27734;47.028;28.820;2023-06-22T02:20:26;25.17;;;16.73;;
42066;SDS011;27734;47.028;28.820;2023-06-22T02:22:58;25.30;;;16.70;;
42066;SDS011;27734;47.028;28.820;2023-06-22T02:25:29;24.87;;;16.17;;
42066;SDS011;27734;47.028;28.820;2023-06-22T02:28:01;25.93;;;16.77;;
42066;SDS011;27734;47.028;28.820;2023-06-22T02:30:33;28.13;;;17.07;;
42066;SDS011;27734;47.028;28.820;2023-06-22T02:33:04;27.03;;;16.97;;
42066;SDS011;27734;47.028;28.820;2023-06-22T02:35:35;25.87;;;16.57;;
42066;SDS011;27734;47.028;28.820;2023-06-22T02:38:08;25.23;;;16.70;;
42066;SDS011;27734;47.028;28.820;2023-06-22T02:40:40;24.95;;;16.70;;
42066;SDS011;27734;47.028;28.820;2023-06-22T02:43:11;28.00;;;16.50;;
42066;SDS011;27734;47.028;28.820;2023-06-22T02:45:45;25.10;;;16.70;;
42066;SDS011;27734;47.028;28.820;2023-06-22T02:48:18;26.10;;;17.00;;
42066;SDS011;27734;47.028;28.820;2023-06-22T02:50:49;25.80;;;16.53;;
42066;SDS011;27734;47.028;28.820;2023-06-22T02:53:21;23.95;;;15.80;;
42066;SDS011;27734;47.028;28.820;2023-06-22T02:55:52;25.60;;;16.30;;
42066;SDS011;27734;47.028;28.820;2023-06-22T02:58:23;26.47;;;16.77;;
42066;SDS011;27734;47.028;28.820;2023-06-22T03:00:55;25.20;;;16.93;;
42066;SDS011;27734;47.028;28.820;2023-06-22T03:03:33;30.13;;;17.03;;
42066;SDS011;27734;47.028;28.820;2023-06-22T03:06:04;26.43;;;16.97;;
42066;SDS011;27734;47.028;28.820;2023-06-22T03:08:35;25.30;;;16.53;;
42066;SDS011;27734;47.028;28.820;2023-06-22T03:11:07;25.33;;;16.63;;
42066;SDS011;27734;47.028;28.820;2023-06-22T03:13:38;24.43;;;16.00;;
42066;SDS011;27734;47.028;28.820;2023-06-22T03:16:10;25.90;;;16.43;;
42066;SDS011;27734;47.028;28.820;2023-06-22T03:18:41;24.30;;;16.47;;
42066;SDS011;27734;47.028;28.820;2023-06-22T03:21:14;23.57;;;15.85;;
42066;SDS011;27734;47.028;28.820;2023-06-22T03:23:46;27.63;;;16.07;;
42066;SDS011;27734;47.028;28.820;2023-06-22T03:26:17;23.90;;;15.50;;
42066;SDS011;27734;47.028;28.820;2023-06-22T03:28:49;25.70;;;15.97;;
42066;SDS011;27734;47.028;28.820;2023-06-22T03:31:20;25.57;;;16.07;;
42066;SDS011;27734;47.028;28.820;2023-06-22T03:33:52;24.80;;;15.85;;
42066;SDS011;27734;47.028;28.820;2023-06-22T03:36:25;24.98;;;15.98;;
42066;SDS011;27734;47.028;28.820;2023-06-22T03:38:56;26.57;;;16.57;;
42066;SDS011;27734;47.028;28.820;2023-06-22T03:41:28;28.53;;;15.57;;
42066;SDS011;27734;47.028;28.820;2023-06-22T03:43:59;23.80;;;15.70;;
42066;SDS011;27734;47.028;28.820;2023-06-22T03:46:30;25.03;;;15.77;;
42066;SDS011;27734;47.028;28.820;2023-06-22T03:49:01;25.30;;;16.73;;
42066;SDS011;27734;47.028;28.820;2023-06-22T03:51:33;25.47;;;16.77;;
42066;SDS011;27734;47.028;28.820;2023-06-22T03:54:04;25.53;;;16.60;;
42066;SDS011;27734;47.028;28.820;2023-06-22T03:56:35;22.70;;;15.77;;
42066;SDS011;27734;47.028;28.820;2023-06-22T03:59:06;26.40;;;16.00;;
42066;SDS011;27734;47.028;28.820;2023-06-22T04:01:38;27.13;;;16.37;;
42066;SDS011;27734;47.028;28.820;2023-06-22T04:04:09;24.90;;;15.23;;
42066;SDS011;27734;47.028;28.820;2023-06-22T04:06:40;24.30;;;16.25;;
42066;SDS011;27734;47.028;28.820;2023-06-22T04:09:12;23.50;;;16.23;;
42066;SDS011;27734;47.028;28.820;2023-06-22T04:11:43;27.70;;;15.97;;
42066;SDS011;27734;47.028;28.820;2023-06-22T04:14:14;25.23;;;16.47;;
42066;SDS011;27734;47.028;28.820;2023-06-22T04:16:45;24.53;;;16.63;;
42066;SDS011;27734;47.028;28.820;2023-06-22T04:19:16;24.50;;;15.93;;
42066;SDS011;27734;47.028;28.820;2023-06-22T04:21:48;27.57;;;17.10;;
42066;SDS011;27734;47.028;28.820;2023-06-22T04:24:19;24.23;;;15.97;;
42066;SDS011;27734;47.028;28.820;2023-06-22T04:26:50;25.93;;;16.33;;
42066;SDS011;27734;47.028;28.820;2023-06-22T04:29:23;25.00;;;16.33;;
42066;SDS011;27734;47.028;28.820;2023-06-22T04:31:58;24.70;;;16.17;;
42066;SDS011;27734;47.028;28.820;2023-06-22T04:34:34;27.33;;;16.27;;
42066;SDS011;27734;47.028;28.820;2023-06-22T04:37:06;28.90;;;15.23;;
42066;SDS011;27734;47.028;28.820;2023-06-22T04:39:37;23.97;;;15.83;;
42066;SDS011;27734;47.028;28.820;2023-06-22T04:42:13;23.63;;;15.53;;
42066;SDS011;27734;47.028;28.820;2023-06-22T04:44:48;24.87;;;16.40;;
42066;SDS011;27734;47.028;28.820;2023-06-22T04:47:20;24.60;;;16.27;;
42066;SDS011;27734;47.028;28.820;2023-06-22T04:49:51;23.70;;;15.63;;
42066;SDS011;27734;47.028;28.820;2023-06-22T04:52:23;24.47;;;16.10;;
42066;SDS011;27734;47.028;28.820;2023-06-22T04:54:54;23.93;;;16.00;;
42066;SDS011;27734;47.028;28.820;2023-06-22T04:57:27;23.63;;;15.97;;
42066;SDS011;27734;47.028;28.820;2023-06-22T05:00:00;25.73;;;16.97;;
42066;SDS011;27734;47.028;28.820;2023-06-22T05:02:42;25.47;;;16.80;;
42066;SDS011;27734;47.028;28.820;2023-06-22T05:05:15;24.60;;;16.23;;
42066;SDS011;27734;47.028;28.820;2023-06-22T05:07:46;25.57;;;15.77;;
42066;SDS011;27734;47.028;28.820;2023-06-22T05:10:21;25.43;;;16.43;;
42066;SDS011;27734;47.028;28.820;2023-06-22T05:12:52;26.87;;;16.57;;
42066;SDS011;27734;47.028;28.820;2023-06-22T05:15:23;26.17;;;16.20;;
42066;SDS011;27734;47.028;28.820;2023-06-22T05:17:58;23.80;;;15.50;;
42066;SDS011;27734;47.028;28.820;2023-06-22T05:20:33;26.67;;;16.63;;
42066;SDS011;27734;47.028;28.820;2023-06-22T05:23:07;25.77;;;16.07;;
42066;SDS011;27734;47.028;28.820;2023-06-22T05:25:39;28.10;;;16.20;;
42066;SDS011;27734;47.028;28.820;2023-06-22T05:28:10;29.97;;;16.80;;
42066;SDS011;27734;47.028;28.820;2023-06-22T05:30:42;30.77;;;16.73;;
42066;SDS011;27734;47.028;28.820;2023-06-22T05:33:13;25.97;;;15.27;;
42066;SDS011;27734;47.028;28.820;2023-06-22T05:35:44;25.47;;;16.73;;
42066;SDS011;27734;47.028;28.820;2023-06-22T05:38:16;25.70;;;15.80;;
42066;SDS011;27734;47.028;28.820;2023-06-22T05:40:47;25.87;;;16.60;;
42066;SDS011;27734;47.028;28.820;2023-06-22T05:43:21;28.23;;;16.20;;
42066;SDS011;27734;47.028;28.820;2023-06-22T05:45:54;24.97;;;16.37;;
42066;SDS011;27734;47.028;28.820;2023-06-22T05:48:26;22.73;;;14.55;;
42066;SDS011;27734;47.028;28.820;2023-06-22T05:50:57;24.63;;;16.40;;
42066;SDS011;27734;47.028;28.820;2023-06-22T05:53:29;27.40;;;16.30;;
42066;SDS011;27734;47.028;28.820;2023-06-22T05:56:00;25.05;;;16.00;;
42066;SDS011;27734;47.028;28.820;2023-06-22T05:58:32;27.05;;;16.75;;
42066;SDS011;27734;47.028;28.820;2023-06-22T06:01:04;26.80;;;16.93;;
42066;SDS011;27734;47.028;28.820;2023-06-22T06:03:36;24.10;;;15.90;;
42066;SDS011;27734;47.028;28.820;2023-06-22T06:06:09;24.60;;;16.05;;
42066;SDS011;27734;47.028;28.820;2023-06-22T06:08:44;27.57;;;15.03;;
42066;SDS011;27734;47.028;28.820;2023-06-22T06:11:16;24.20;;;15.83;;
42066;SDS011;27734;47.028;28.820;2023-06-22T06:13:52;27.73;;;15.63;;
42066;SDS011;27734;47.028;28.820;2023-06-22T06:16:25;26.57;;;16.57;;
42066;SDS011;27734;47.028;28.820;2023-06-22T06:18:59;28.62;;;16.23;;
42066;SDS011;27734;47.028;28.820;2023-06-22T06:21:31;25.80;;;14.83;;
42066;SDS011;27734;47.028;28.820;2023-06-22T06:24:02;22.57;;;14.40;;
42066;SDS011;27734;47.028;28.820;2023-06-22T06:26:38;25.53;;;14.67;;
42066;SDS011;27734;47.028;28.820;2023-06-22T06:29:20;24.37;;;15.77;;
42066;SDS011;27734;47.028;28.820;2023-06-22T06:31:53;27.93;;;15.50;;
42066;SDS011;27734;47.028;28.820;2023-06-22T06:34:25;27.70;;;16.60;;
42066;SDS011;27734;47.028;28.820;2023-06-22T06:36:58;27.95;;;15.20;;
42066;SDS011;27734;47.028;28.820;2023-06-22T06:39:30;25.03;;;14.97;;
42066;SDS011;27734;47.028;28.820;2023-06-22T06:42:02;23.07;;;14.47;;
42066;SDS011;27734;47.028;28.820;2023-06-22T06:44:38;27.33;;;14.60;;
42066;SDS011;27734;47.028;28.820;2023-06-22T06:47:10;25.40;;;14.47;;
42066;SDS011;27734;47.028;28.820;2023-06-22T06:49:45;22.60;;;14.10;;
42066;SDS011;27734;47.028;28.820;2023-06-22T06:52:25;23.73;;;14.50;;
42066;SDS011;27734;47.028;28.820;2023-06-22T06:54:56;23.87;;;14.40;;
42066;SDS011;27734;47.028;28.820;2023-06-22T06:57:29;21.23;;;13.97;;
42066;SDS011;27734;47.028;28.820;2023-06-22T07:00:00;23.03;;;14.10;;
42066;SDS011;27734;47.028;28.820;2023-06-22T07:02:39;22.77;;;13.50;;
42066;SDS011;27734;47.028;28.820;2023-06-22T07:05:11;22.43;;;13.20;;
42066;SDS011;27734;47.028;28.820;2023-06-22T07:07:46;24.23;;;14.03;;
42066;SDS011;27734;47.028;28.820;2023-06-22T07:10:18;25.27;;;14.23;;
42066;SDS011;27734;47.028;28.820;2023-06-22T07:12:50;21.13;;;13.40;;
42066;SDS011;27734;47.028;28.820;2023-06-22T07:15:21;23.30;;;13.13;;
42066;SDS011;27734;47.028;28.820;2023-06-22T07:17:59;24.63;;;13.27;;
42066;SDS011;27734;47.028;28.820;2023-06-22T07:20:31;20.82;;;13.28;;
42066;SDS011;27734;47.028;28.820;2023-06-22T07:23:03;20.80;;;12.70;;
42066;SDS011;27734;47.028;28.820;2023-06-22T07:25:34;20.30;;;12.23;;
42066;SDS011;27734;47.028;28.820;2023-06-22T07:28:07;19.33;;;11.50;;
42066;SDS011;27734;47.028;28.820;2023-06-22T07:30:41;22.90;;;11.73;;
42066;SDS011;27734;47.028;28.820;2023-06-22T07:33:13;19.03;;;11.37;;
42066;SDS011;27734;47.028;28.820;2023-06-22T07:35:45;18.50;;;11.00;;
42066;SDS011;27734;47.028;28.820;2023-06-22T07:38:19;18.83;;;11.10;;
42066;SDS011;27734;47.028;28.820;2023-06-22T07:40:58;18.90;;;11.30;;
42066;SDS011;27734;47.028;28.820;2023-06-22T07:43:29;18.03;;;10.23;;
42066;SDS011;27734;47.028;28.820;2023-06-22T07:46:01;21.07;;;11.70;;
42066;SDS011;27734;47.028;28.820;2023-06-22T07:48:36;18.87;;;11.73;;
42066;SDS011;27734;47.028;28.820;2023-06-22T07:51:11;18.10;;;10.37;;
42066;SDS011;27734;47.028;28.820;2023-06-22T07:53:43;17.40;;;11.10;;
42066;SDS011;27734;47.028;28.820;2023-06-22T07:56:19;18.15;;;10.68;;
42066;SDS011;27734;47.028;28.820;2023-06-22T07:58:53;19.00;;;10.13;;
42066;SDS011;27734;47.028;28.820;2023-06-22T08:01:26;16.83;;;10.47;;
42066;SDS011;27734;47.028;28.820;2023-06-22T08:03:58;18.80;;;10.90;;
42066;SDS011;27734;47.028;28.820;2023-06-22T08:06:36;17.63;;;10.30;;
42066;SDS011;27734;47.028;28.820;2023-06-22T08:09:10;17.60;;;10.13;;
42066;SDS011;27734;47.028;28.820;2023-06-22T08:11:43;16.17;;;9.80;;
42066;SDS011;27734;47.028;28.820;2023-06-22T08:14:19;18.27;;;11.00;;
42066;SDS011;27734;47.028;28.820;2023-06-22T08:16:52;18.37;;;10.37;;
42066;SDS011;27734;47.028;28.820;2023-06-22T08:19:26;19.43;;;10.63;;
42066;SDS011;27734;47.028;28.820;2023-06-22T08:21:58;18.73;;;10.53;;
42066;SDS011;27734;47.028;28.820;2023-06-22T08:24:31;16.55;;;9.70;;
42066;SDS011;27734;47.028;28.820;2023-06-22T08:27:02;16.17;;;9.37;;
42066;SDS011;27734;47.028;28.820;2023-06-22T08:29:36;17.47;;;9.90;;
42066;SDS011;27734;47.028;28.820;2023-06-22T08:32:10;16.97;;;9.77;;
42066;SDS011;27734;47.028;28.820;2023-06-22T08:34:41;15.20;;;9.57;;
42066;SDS011;27734;47.028;28.820;2023-06-22T08:37:13;15.93;;;9.83;;
42066;SDS011;27734;47.028;28.820;2023-06-22T08:39:44;15.53;;;9.23;;
42066;SDS011;27734;47.028;28.820;2023-06-22T08:42:16;15.57;;;9.57;;
42066;SDS011;27734;47.028;28.820;2023-06-22T08:44:48;17.40;;;9.80;;
42066;SDS011;27734;47.028;28.820;2023-06-22T08:47:20;19.03;;;9.63;;
42066;SDS011;27734;47.028;28.820;2023-06-22T08:49:52;15.23;;;9.43;;
42066;SDS011;27734;47.028;28.820;2023-06-22T08:52:23;14.60;;;9.77;;
42066;SDS011;27734;47.028;28.820;2023-06-22T08:54:58;17.13;;;9.60;;
42066;SDS011;27734;47.028;28.820;2023-06-22T08:57:30;18.47;;;9.67;;
42066;SDS011;27734;47.028;28.820;2023-06-22T09:00:02;15.40;;;9.60;;
42066;SDS011;27734;47.028;28.820;2023-06-22T09:02:40;15.00;;;9.70;;
42066;SDS011;27734;47.028;28.820;2023-06-22T09:05:12;17.57;;;9.70;;
42066;SDS011;27734;47.028;28.820;2023-06-22T09:07:44;18.43;;;9.43;;
42066;SDS011;27734;47.028;28.820;2023-06-22T09:10:16;15.20;;;9.30;;
42066;SDS011;27734;47.028;28.820;2023-06-22T09:12:47;16.10;;;9.63;;
42066;SDS011;27734;47.028;28.820;2023-06-22T09:15:25;16.57;;;10.30;;
42066;SDS011;27734;47.028;28.820;2023-06-22T09:17:57;15.83;;;9.70;;
42066;SDS011;27734;47.028;28.820;2023-06-22T09:20:34;15.67;;;9.80;;
42066;SDS011;27734;47.028;28.820;2023-06-22T09:23:06;15.57;;;9.30;;
42066;SDS011;27734;47.028;28.820;2023-06-22T09:25:40;15.77;;;9.27;;
42066;SDS011;27734;47.028;28.820;2023-06-22T09:28:16;17.07;;;9.90;;
42066;SDS011;27734;47.028;28.820;2023-06-22T09:30:47;14.20;;;9.07;;
42066;SDS011;27734;47.028;28.820;2023-06-22T09:33:19;18.20;;;9.43;;
42066;SDS011;27734;47.028;28.820;2023-06-22T09:35:53;15.80;;;9.27;;
42066;SDS011;27734;47.028;28.820;2023-06-22T09:38:24;15.47;;;10.13;;
42066;SDS011;27734;47.028;28.820;2023-06-22T09:40:56;15.63;;;9.17;;
42066;SDS011;27734;47.028;28.820;2023-06-22T09:43:28;13.10;;;8.73;;
42066;SDS011;27734;47.028;28.820;2023-06-22T09:46:03;14.57;;;8.67;;
42066;SDS011;27734;47.028;28.820;2023-06-22T09:48:39;15.93;;;9.07;;
42066;SDS011;27734;47.028;28.820;2023-06-22T09:51:11;17.30;;;9.63;;
42066;SDS011;27734;47.028;28.820;2023-06-22T09:53:43;14.17;;;9.03;;
42066;SDS011;27734;47.028;28.820;2023-06-22T09:56:16;16.60;;;9.30;;
42066;SDS011;27734;47.028;28.820;2023-06-22T09:58:47;15.60;;;9.40;;
42066;SDS011;27734;47.028;28.820;2023-06-22T10:01:20;17.47;;;10.07;;
42066;SDS011;27734;47.028;28.820;2023-06-22T10:03:53;13.77;;;9.13;;
42066;SDS011;27734;47.028;28.820;2023-06-22T10:06:26;14.50;;;9.20;;
42066;SDS011;27734;47.028;28.820;2023-06-22T10:08:59;16.80;;;10.35;;
42066;SDS011;27734;47.028;28.820;2023-06-22T10:11:33;14.57;;;9.87;;
42066;SDS011;27734;47.028;28.820;2023-06-22T10:14:13;17.17;;;9.43;;
42066;SDS011;27734;47.028;28.820;2023-06-22T10:16:48;17.50;;;9.40;;
42066;SDS011;27734;47.028;28.820;2023-06-22T10:19:21;16.70;;;9.43;;
42066;SDS011;27734;47.028;28.820;2023-06-22T10:21:52;18.43;;;9.70;;
42066;SDS011;27734;47.028;28.820;2023-06-22T10:24:24;14.53;;;9.40;;
42066;SDS011;27734;47.028;28.820;2023-06-22T10:26:55;14.40;;;9.40;;
42066;SDS011;27734;47.028;28.820;2023-06-22T10:29:26;19.10;;;9.93;;
42066;SDS011;27734;47.028;28.820;2023-06-22T10:31:58;19.30;;;9.93;;
42066;SDS011;27734;47.028;28.820;2023-06-22T10:37:01;17.50;;;9.97;;
42066;SDS011;27734;47.028;28.820;2023-06-22T10:39:33;15.50;;;9.55;;
42066;SDS011;27734;47.028;28.820;2023-06-22T10:42:07;17.27;;;9.40;;
42066;SDS011;27734;47.028;28.820;2023-06-22T10:44:43;16.05;;;9.50;;
42066;SDS011;27734;47.028;28.820;2023-06-22T10:47:19;17.13;;;9.40;;
42066;SDS011;27734;47.028;28.820;2023-06-22T10:49:52;14.67;;;9.43;;
42066;SDS011;27734;47.028;28.820;2023-06-22T10:52:25;16.23;;;10.03;;
42066;SDS011;27734;47.028;28.820;2023-06-22T10:54:57;15.45;;;9.45;;
42066;SDS011;27734;47.028;28.820;2023-06-22T10:57:31;17.77;;;9.97;;
42066;SDS011;27734;47.028;28.820;2023-06-22T11:00:04;15.43;;;9.73;;
42066;SDS011;27734;47.028;28.820;2023-06-22T11:02:44;17.67;;;9.90;;
42066;SDS011;27734;47.028;28.820;2023-06-22T11:05:21;15.20;;;9.03;;
42066;SDS011;27734;47.028;28.820;2023-06-22T11:10:23;16.27;;;9.97;;
42066;SDS011;27734;47.028;28.820;2023-06-22T11:12:56;15.60;;;9.08;;
42066;SDS011;27734;47.028;28.820;2023-06-22T11:15:28;14.87;;;9.13;;
42066;SDS011;27734;47.028;28.820;2023-06-22T11:18:00;13.73;;;9.10;;
42066;SDS011;27734;47.028;28.820;2023-06-22T11:20:33;15.50;;;9.90;;
42066;SDS011;27734;47.028;28.820;2023-06-22T11:23:07;23.07;;;10.13;;
42066;SDS011;27734;47.028;28.820;2023-06-22T11:25:41;18.30;;;9.43;;
42066;SDS011;27734;47.028;28.820;2023-06-22T11:28:15;16.87;;;8.75;;
42066;SDS011;27734;47.028;28.820;2023-06-22T11:30:47;14.90;;;8.60;;
42066;SDS011;27734;47.028;28.820;2023-06-22T11:33:29;14.10;;;8.98;;
42066;SDS011;27734;47.028;28.820;2023-06-22T11:36:24;13.40;;;8.53;;
42066;SDS011;27734;47.028;28.820;2023-06-22T11:39:11;15.80;;;8.93;;
42066;SDS011;27734;47.028;28.820;2023-06-22T11:41:49;14.13;;;8.83;;
42066;SDS011;27734;47.028;28.820;2023-06-22T11:47:23;18.07;;;9.43;;
42066;SDS011;27734;47.028;28.820;2023-06-22T11:49:55;14.57;;;9.67;;
42066;SDS011;27734;47.028;28.820;2023-06-22T11:55:42;15.97;;;8.53;;
42066;SDS011;27734;47.028;28.820;2023-06-22T11:58:16;15.47;;;9.00;;
42066;SDS011;27734;47.028;28.820;2023-06-22T12:00:55;14.17;;;8.37;;
42066;SDS011;27734;47.028;28.820;2023-06-22T12:03:40;13.53;;;8.83;;
42066;SDS011;27734;47.028;28.820;2023-06-22T12:06:12;14.85;;;8.60;;
42066;SDS011;27734;47.028;28.820;2023-06-22T12:08:47;16.87;;;9.50;;
42066;SDS011;27734;47.028;28.820;2023-06-22T12:11:31;14.33;;;8.37;;
42066;SDS011;27734;47.028;28.820;2023-06-22T12:14:18;14.13;;;8.23;;
42066;SDS011;27734;47.028;28.820;2023-06-22T12:17:01;12.30;;;8.20;;
42066;SDS011;27734;47.028;28.820;2023-06-22T12:19:37;12.00;;;7.80;;
42066;SDS011;27734;47.028;28.820;2023-06-22T12:22:11;12.13;;;7.90;;
42066;SDS011;27734;47.028;28.820;2023-06-22T12:24:46;11.67;;;8.27;;
42066;SDS011;27734;47.028;28.820;2023-06-22T12:27:28;13.63;;;8.37;;
42066;SDS011;27734;47.028;28.820;2023-06-22T12:32:55;12.90;;;8.87;;
42066;SDS011;27734;47.028;28.820;2023-06-22T12:35:27;13.97;;;8.77;;
42066;SDS011;27734;47.028;28.820;2023-06-22T12:38:01;13.83;;;8.17;;
42066;SDS011;27734;47.028;28.820;2023-06-22T12:40:38;14.70;;;8.57;;
42066;SDS011;27734;47.028;28.820;2023-06-22T12:43:11;14.67;;;8.73;;
42066;SDS011;27734;47.028;28.820;2023-06-22T12:45:43;11.97;;;7.80;;
42066;SDS011;27734;47.028;28.820;2023-06-22T12:48:17;13.47;;;8.60;;
42066;SDS011;27734;47.028;28.820;2023-06-22T12:50:49;13.67;;;7.80;;
42066;SDS011;27734;47.028;28.820;2023-06-22T12:53:31;11.93;;;7.67;;
42066;SDS011;27734;47.028;28.820;2023-06-22T12:56:24;14.20;;;7.75;;
42066;SDS011;27734;47.028;28.820;2023-06-22T12:59:11;15.57;;;8.10;;
42066;SDS011;27734;47.028;28.820;2023-06-22T13:01:59;13.62;;;7.90;;
42066;SDS011;27734;47.028;28.820;2023-06-22T13:04:40;12.83;;;7.63;;
42066;SDS011;27734;47.028;28.820;2023-06-22T13:07:14;11.77;;;7.33;;
42066;SDS011;27734;47.028;28.820;2023-06-22T13:09:46;12.75;;;7.45;;
42066;SDS011;27734;47.028;28.820;2023-06-22T13:12:20;13.70;;;7.50;;
42066;SDS011;27734;47.028;28.820;2023-06-22T13:14:58;14.40;;;7.53;;
42066;SDS011;27734;47.028;28.820;2023-06-22T13:17:34;12.30;;;7.73;;
42066;SDS011;27734;47.028;28.820;2023-06-22T13:20:10;12.17;;;7.80;;
42066;SDS011;27734;47.028;28.820;2023-06-22T13:22:48;11.37;;;7.07;;
42066;SDS011;27734;47.028;28.820;2023-06-22T13:25:25;14.77;;;7.63;;
42066;SDS011;27734;47.028;28.820;2023-06-22T13:27:59;15.17;;;7.07;;
42066;SDS011;27734;47.028;28.820;2023-06-22T13:30:34;12.67;;;7.30;;
42066;SDS011;27734;47.028;28.820;2023-06-22T13:33:14;13.00;;;7.80;;
42066;SDS011;27734;47.028;28.820;2023-06-22T13:35:47;11.13;;;7.07;;
42066;SDS011;27734;47.028;28.820;2023-06-22T13:38:19;11.80;;;7.40;;
42066;SDS011;27734;47.028;28.820;2023-06-22T13:40:50;13.40;;;7.27;;
42066;SDS011;27734;47.028;28.820;2023-06-22T13:43:24;12.50;;;7.23;;
42066;SDS011;27734;47.028;28.820;2023-06-22T13:46:02;12.35;;;6.95;;
42066;SDS011;27734;47.028;28.820;2023-06-22T13:48:41;11.37;;;7.13;;
42066;SDS011;27734;47.028;28.820;2023-06-22T13:51:12;11.60;;;7.40;;
42066;SDS011;27734;47.028;28.820;2023-06-22T13:53:48;15.27;;;7.63;;
42066;SDS011;27734;47.028;28.820;2023-06-22T13:56:27;12.47;;;6.93;;
42066;SDS011;27734;47.028;28.820;2023-06-22T14:01:28;10.67;;;7.00;;
42066;SDS011;27734;47.028;28.820;2023-06-22T14:04:00;11.67;;;7.37;;
42066;SDS011;27734;47.028;28.820;2023-06-22T14:06:32;12.67;;;7.40;;
42066;SDS011;27734;47.028;28.820;2023-06-22T14:09:07;11.65;;;6.85;;
42066;SDS011;27734;47.028;28.820;2023-06-22T14:11:41;14.53;;;7.30;;
42066;SDS011;27734;47.028;28.820;2023-06-22T14:14:13;10.23;;;6.75;;
42066;SDS011;27734;47.028;28.820;2023-06-22T14:16:45;13.80;;;6.73;;
42066;SDS011;27734;47.028;28.820;2023-06-22T14:19:18;13.83;;;6.90;;
42066;SDS011;27734;47.028;28.820;2023-06-22T14:21:51;11.50;;;6.90;;
42066;SDS011;27734;47.028;28.820;2023-06-22T14:24:22;11.05;;;7.35;;
42066;SDS011;27734;47.028;28.820;2023-06-22T14:26:53;10.53;;;7.10;;
42066;SDS011;27734;47.028;28.820;2023-06-22T14:29:25;10.20;;;7.05;;
42066;SDS011;27734;47.028;28.820;2023-06-22T14:31:56;10.95;;;7.05;;
42066;SDS011;27734;47.028;28.820;2023-06-22T14:34:28;11.17;;;7.10;;
42066;SDS011;27734;47.028;28.820;2023-06-22T14:36:59;11.37;;;7.30;;
42066;SDS011;27734;47.028;28.820;2023-06-22T14:39:33;11.77;;;7.13;;
42066;SDS011;27734;47.028;28.820;2023-06-22T14:42:05;10.23;;;6.60;;
42066;SDS011;27734;47.028;28.820;2023-06-22T14:44:39;12.83;;;7.57;;
42066;SDS011;27734;47.028;28.820;2023-06-22T14:47:14;11.23;;;6.73;;
42066;SDS011;27734;47.028;28.820;2023-06-22T14:49:47;12.00;;;7.10;;
42066;SDS011;27734;47.028;28.820;2023-06-22T14:52:19;11.97;;;7.03;;
42066;SDS011;27734;47.028;28.820;2023-06-22T14:54:50;13.20;;;6.90;;
42066;SDS011;27734;47.028;28.820;2023-06-22T14:57:22;10.80;;;7.10;;
42066;SDS011;27734;47.028;28.820;2023-06-22T14:59:53;10.00;;;6.63;;
42066;SDS011;27734;47.028;28.820;2023-06-22T15:02:24;10.63;;;6.43;;
42066;SDS011;27734;47.028;28.820;2023-06-22T15:04:56;13.10;;;6.80;;
42066;SDS011;27734;47.028;28.820;2023-06-22T15:07:27;11.10;;;7.20;;
42066;SDS011;27734;47.028;28.820;2023-06-22T15:09:58;10.83;;;7.07;;